sensor_id;sensor_type;location;lat;lon;timestamp;P1;durP1;ratioP1;P2;durP2;ratioP2
15677;SDS011;7939;50.814;6.368;2024-03-25T00:00:09;10.60;;;3.42;;
15677;SDS011;7939;50.814;6.368;2024-03-25T00:02:37;8.40;;;3.80;;
15677;SDS011;7939;50.814;6.368;2024-03-25T00:05:03;10.18;;;3.38;;
15677;SDS011;7939;50.814;6.368;2024-03-25T00:07:30;8.90;;;3.60;;
15677;SDS011;7939;50.814;6.368;2024-03-25T00:09:57;6.78;;;3.50;;
15677;SDS011;7939;50.814;6.368;2024-03-25T00:12:25;7.03;;;3.13;;
15677;SDS011;7939;50.814;6.368;2024-03-25T00:14:51;5.20;;;2.60;;
15677;SDS011;7939;50.814;6.368;2024-03-25T00:17:17;7.03;;;2.70;;
15677;SDS011;7939;50.814;6.368;2024-03-25T00:19:44;6.50;;;2.75;;
15677;SDS011;7939;50.814;6.368;2024-03-25T00:22:15;9.27;;;3.75;;
15677;SDS011;7939;50.814;6.368;2024-03-25T00:24:41;7.25;;;3.03;;
15677;SDS011;7939;50.814;6.368;2024-03-25T00:27:09;10.68;;;3.50;;
15677;SDS011;7939;50.814;6.368;2024-03-25T00:29:35;8.50;;;3.13;;
15677;SDS011;7939;50.814;6.368;2024-03-25T00:32:02;6.47;;;2.85;;
15677;SDS011;7939;50.814;6.368;2024-03-25T00:34:28;9.43;;;3.22;;
15677;SDS011;7939;50.814;6.368;2024-03-25T00:36:55;8.63;;;3.30;;
15677;SDS011;7939;50.814;6.368;2024-03-25T00:39:20;5.63;;;3.35;;
15677;SDS011;7939;50.814;6.368;2024-03-25T00:41:48;6.47;;;3.00;;
15677;SDS011;7939;50.814;6.368;2024-03-25T00:44:15;5.88;;;3.03;;
15677;SDS011;7939;50.814;6.368;2024-03-25T00:46:41;7.07;;;3.38;;
15677;SDS011;7939;50.814;6.368;2024-03-25T00:49:07;9.13;;;3.28;;
15677;SDS011;7939;50.814;6.368;2024-03-25T00:51:34;6.80;;;3.58;;
15677;SDS011;7939;50.814;6.368;2024-03-25T00:53:59;11.75;;;3.60;;
15677;SDS011;7939;50.814;6.368;2024-03-25T00:56:26;7.93;;;3.33;;
15677;SDS011;7939;50.814;6.368;2024-03-25T00:58:52;8.35;;;3.30;;
15677;SDS011;7939;50.814;6.368;2024-03-25T01:01:20;14.30;;;3.30;;
15677;SDS011;7939;50.814;6.368;2024-03-25T01:03:46;8.02;;;3.25;;
15677;SDS011;7939;50.814;6.368;2024-03-25T01:06:13;10.70;;;3.85;;
15677;SDS011;7939;50.814;6.368;2024-03-25T01:08:38;10.02;;;3.42;;
15677;SDS011;7939;50.814;6.368;2024-03-25T01:11:05;11.93;;;4.53;;
15677;SDS011;7939;50.814;6.368;2024-03-25T01:13:31;8.15;;;3.30;;
15677;SDS011;7939;50.814;6.368;2024-03-25T01:15:58;5.30;;;3.00;;
15677;SDS011;7939;50.814;6.368;2024-03-25T01:18:25;6.40;;;3.05;;
15677;SDS011;7939;50.814;6.368;2024-03-25T01:20:51;8.60;;;4.47;;
15677;SDS011;7939;50.814;6.368;2024-03-25T01:23:17;8.02;;;3.85;;
15677;SDS011;7939;50.814;6.368;2024-03-25T01:25:45;9.20;;;3.15;;
15677;SDS011;7939;50.814;6.368;2024-03-25T01:28:10;8.63;;;3.08;;
15677;SDS011;7939;50.814;6.368;2024-03-25T01:30:37;9.85;;;3.42;;
15677;SDS011;7939;50.814;6.368;2024-03-25T01:33:04;8.48;;;3.30;;
15677;SDS011;7939;50.814;6.368;2024-03-25T01:35:32;7.18;;;3.03;;
15677;SDS011;7939;50.814;6.368;2024-03-25T01:37:58;8.20;;;3.25;;
15677;SDS011;7939;50.814;6.368;2024-03-25T01:40:24;6.45;;;3.33;;
15677;SDS011;7939;50.814;6.368;2024-03-25T01:42:56;8.27;;;3.15;;
15677;SDS011;7939;50.814;6.368;2024-03-25T01:45:23;9.38;;;3.63;;
15677;SDS011;7939;50.814;6.368;2024-03-25T01:47:50;9.80;;;3.15;;
15677;SDS011;7939;50.814;6.368;2024-03-25T01:50:17;10.68;;;3.80;;
15677;SDS011;7939;50.814;6.368;2024-03-25T01:52:45;7.50;;;3.42;;
15677;SDS011;7939;50.814;6.368;2024-03-25T01:55:12;10.10;;;3.33;;
15677;SDS011;7939;50.814;6.368;2024-03-25T01:57:42;7.00;;;3.33;;
15677;SDS011;7939;50.814;6.368;2024-03-25T02:00:10;8.13;;;3.95;;
15677;SDS011;7939;50.814;6.368;2024-03-25T02:02:36;10.07;;;3.50;;
15677;SDS011;7939;50.814;6.368;2024-03-25T02:05:07;6.07;;;2.88;;
15677;SDS011;7939;50.814;6.368;2024-03-25T02:07:33;6.32;;;3.22;;
15677;SDS011;7939;50.814;6.368;2024-03-25T02:10:04;7.47;;;3.22;;
15677;SDS011;7939;50.814;6.368;2024-03-25T02:12:31;7.65;;;4.03;;
15677;SDS011;7939;50.814;6.368;2024-03-25T02:14:59;11.13;;;3.40;;
15677;SDS011;7939;50.814;6.368;2024-03-25T02:17:24;8.65;;;3.50;;
15677;SDS011;7939;50.814;6.368;2024-03-25T02:19:51;8.90;;;4.07;;
15677;SDS011;7939;50.814;6.368;2024-03-25T02:22:17;5.95;;;2.97;;
15677;SDS011;7939;50.814;6.368;2024-03-25T02:24:44;8.27;;;3.53;;
15677;SDS011;7939;50.814;6.368;2024-03-25T02:27:12;6.30;;;3.47;;
15677;SDS011;7939;50.814;6.368;2024-03-25T02:29:40;5.93;;;3.28;;
15677;SDS011;7939;50.814;6.368;2024-03-25T02:32:06;6.90;;;3.45;;
15677;SDS011;7939;50.814;6.368;2024-03-25T02:34:35;12.13;;;3.88;;
15677;SDS011;7939;50.814;6.368;2024-03-25T02:37:01;7.70;;;3.05;;
15677;SDS011;7939;50.814;6.368;2024-03-25T02:39:29;8.10;;;3.30;;
15677;SDS011;7939;50.814;6.368;2024-03-25T02:41:55;7.03;;;3.42;;
15677;SDS011;7939;50.814;6.368;2024-03-25T02:44:23;6.85;;;3.63;;
15677;SDS011;7939;50.814;6.368;2024-03-25T02:46:49;7.47;;;3.35;;
15677;SDS011;7939;50.814;6.368;2024-03-25T02:49:17;7.78;;;3.25;;
15677;SDS011;7939;50.814;6.368;2024-03-25T02:51:43;9.57;;;3.08;;
15677;SDS011;7939;50.814;6.368;2024-03-25T02:54:09;12.85;;;3.35;;
15677;SDS011;7939;50.814;6.368;2024-03-25T02:56:35;8.57;;;3.25;;
15677;SDS011;7939;50.814;6.368;2024-03-25T02:59:02;7.30;;;3.03;;
15677;SDS011;7939;50.814;6.368;2024-03-25T03:01:29;6.63;;;3.00;;
15677;SDS011;7939;50.814;6.368;2024-03-25T03:03:55;5.63;;;3.22;;
15677;SDS011;7939;50.814;6.368;2024-03-25T03:06:21;9.75;;;3.80;;
15677;SDS011;7939;50.814;6.368;2024-03-25T03:08:48;5.53;;;2.58;;
15677;SDS011;7939;50.814;6.368;2024-03-25T03:11:13;7.93;;;2.97;;
15677;SDS011;7939;50.814;6.368;2024-03-25T03:13:40;7.75;;;3.05;;
15677;SDS011;7939;50.814;6.368;2024-03-25T03:16:06;7.78;;;2.92;;
15677;SDS011;7939;50.814;6.368;2024-03-25T03:18:34;6.75;;;2.97;;
15677;SDS011;7939;50.814;6.368;2024-03-25T03:21:00;10.73;;;3.00;;
15677;SDS011;7939;50.814;6.368;2024-03-25T03:23:26;5.63;;;2.90;;
15677;SDS011;7939;50.814;6.368;2024-03-25T03:25:52;10.48;;;3.15;;
15677;SDS011;7939;50.814;6.368;2024-03-25T03:28:19;4.10;;;2.67;;
15677;SDS011;7939;50.814;6.368;2024-03-25T03:30:44;8.10;;;3.38;;
15677;SDS011;7939;50.814;6.368;2024-03-25T03:33:11;8.02;;;3.17;;
15677;SDS011;7939;50.814;6.368;2024-03-25T03:35:38;6.70;;;3.00;;
15677;SDS011;7939;50.814;6.368;2024-03-25T03:38:05;7.80;;;3.70;;
15677;SDS011;7939;50.814;6.368;2024-03-25T03:40:31;9.50;;;3.15;;
15677;SDS011;7939;50.814;6.368;2024-03-25T03:42:58;6.78;;;3.22;;
15677;SDS011;7939;50.814;6.368;2024-03-25T03:45:24;9.52;;;3.10;;
15677;SDS011;7939;50.814;6.368;2024-03-25T03:47:51;4.13;;;2.53;;
15677;SDS011;7939;50.814;6.368;2024-03-25T03:50:17;7.97;;;3.03;;
15677;SDS011;7939;50.814;6.368;2024-03-25T03:52:45;5.05;;;2.83;;
15677;SDS011;7939;50.814;6.368;2024-03-25T03:55:11;4.93;;;3.05;;
15677;SDS011;7939;50.814;6.368;2024-03-25T03:57:37;4.38;;;2.90;;
15677;SDS011;7939;50.814;6.368;2024-03-25T04:00:03;4.40;;;2.33;;
15677;SDS011;7939;50.814;6.368;2024-03-25T04:02:30;7.15;;;2.63;;
15677;SDS011;7939;50.814;6.368;2024-03-25T04:04:56;5.38;;;2.92;;
15677;SDS011;7939;50.814;6.368;2024-03-25T04:07:23;5.78;;;2.75;;
15677;SDS011;7939;50.814;6.368;2024-03-25T04:09:53;4.75;;;3.03;;
15677;SDS011;7939;50.814;6.368;2024-03-25T04:12:20;8.05;;;3.25;;
15677;SDS011;7939;50.814;6.368;2024-03-25T04:14:46;4.53;;;2.80;;
15677;SDS011;7939;50.814;6.368;2024-03-25T04:17:14;5.53;;;2.78;;
15677;SDS011;7939;50.814;6.368;2024-03-25T04:19:39;4.97;;;2.85;;
15677;SDS011;7939;50.814;6.368;2024-03-25T04:22:06;6.05;;;3.38;;
15677;SDS011;7939;50.814;6.368;2024-03-25T04:24:32;7.82;;;3.53;;
15677;SDS011;7939;50.814;6.368;2024-03-25T04:27:01;5.93;;;3.50;;
15677;SDS011;7939;50.814;6.368;2024-03-25T04:29:26;5.35;;;3.00;;
15677;SDS011;7939;50.814;6.368;2024-03-25T04:31:54;5.47;;;3.30;;
15677;SDS011;7939;50.814;6.368;2024-03-25T04:34:20;7.95;;;3.17;;
15677;SDS011;7939;50.814;6.368;2024-03-25T04:36:48;6.03;;;3.05;;
15677;SDS011;7939;50.814;6.368;2024-03-25T04:39:14;8.43;;;3.05;;
15677;SDS011;7939;50.814;6.368;2024-03-25T04:41:39;7.88;;;3.65;;
15677;SDS011;7939;50.814;6.368;2024-03-25T04:44:07;6.35;;;3.38;;
15677;SDS011;7939;50.814;6.368;2024-03-25T04:46:33;5.97;;;3.15;;
15677;SDS011;7939;50.814;6.368;2024-03-25T04:48:58;5.18;;;2.95;;
15677;SDS011;7939;50.814;6.368;2024-03-25T04:51:24;6.25;;;3.20;;
15677;SDS011;7939;50.814;6.368;2024-03-25T04:53:50;6.63;;;3.42;;
15677;SDS011;7939;50.814;6.368;2024-03-25T04:56:16;6.78;;;3.17;;
15677;SDS011;7939;50.814;6.368;2024-03-25T04:58:41;6.28;;;3.80;;
15677;SDS011;7939;50.814;6.368;2024-03-25T05:01:08;6.00;;;2.92;;
15677;SDS011;7939;50.814;6.368;2024-03-25T05:03:34;6.75;;;2.83;;
15677;SDS011;7939;50.814;6.368;2024-03-25T05:06:00;5.78;;;2.97;;
15677;SDS011;7939;50.814;6.368;2024-03-25T05:08:26;6.70;;;3.03;;
15677;SDS011;7939;50.814;6.368;2024-03-25T05:10:51;6.15;;;2.85;;
15677;SDS011;7939;50.814;6.368;2024-03-25T05:13:17;5.80;;;3.58;;
15677;SDS011;7939;50.814;6.368;2024-03-25T05:15:49;5.53;;;3.75;;
15677;SDS011;7939;50.814;6.368;2024-03-25T05:18:16;4.45;;;2.65;;
15677;SDS011;7939;50.814;6.368;2024-03-25T05:20:42;7.82;;;3.47;;
15677;SDS011;7939;50.814;6.368;2024-03-25T05:23:08;4.45;;;3.45;;
15677;SDS011;7939;50.814;6.368;2024-03-25T05:25:34;8.52;;;3.83;;
15677;SDS011;7939;50.814;6.368;2024-03-25T05:28:00;5.45;;;3.75;;
15677;SDS011;7939;50.814;6.368;2024-03-25T05:30:26;3.63;;;2.80;;
15677;SDS011;7939;50.814;6.368;2024-03-25T05:32:52;5.78;;;3.90;;
15677;SDS011;7939;50.814;6.368;2024-03-25T05:35:19;6.15;;;3.83;;
15677;SDS011;7939;50.814;6.368;2024-03-25T05:37:45;6.35;;;3.80;;
15677;SDS011;7939;50.814;6.368;2024-03-25T05:40:11;6.43;;;3.47;;
15677;SDS011;7939;50.814;6.368;2024-03-25T05:42:37;6.85;;;4.07;;
15677;SDS011;7939;50.814;6.368;2024-03-25T05:45:03;7.13;;;3.88;;
15677;SDS011;7939;50.814;6.368;2024-03-25T05:47:29;6.90;;;3.53;;
15677;SDS011;7939;50.814;6.368;2024-03-25T05:49:56;6.18;;;4.00;;
15677;SDS011;7939;50.814;6.368;2024-03-25T05:52:23;6.22;;;4.15;;
15677;SDS011;7939;50.814;6.368;2024-03-25T05:54:49;8.82;;;3.97;;
15677;SDS011;7939;50.814;6.368;2024-03-25T05:57:14;8.65;;;4.57;;
15677;SDS011;7939;50.814;6.368;2024-03-25T05:59:40;6.82;;;4.07;;
15677;SDS011;7939;50.814;6.368;2024-03-25T06:02:06;6.57;;;4.68;;
15677;SDS011;7939;50.814;6.368;2024-03-25T06:04:32;6.65;;;3.95;;
15677;SDS011;7939;50.814;6.368;2024-03-25T06:06:58;7.85;;;4.05;;
15677;SDS011;7939;50.814;6.368;2024-03-25T06:09:25;8.68;;;3.75;;
15677;SDS011;7939;50.814;6.368;2024-03-25T06:11:52;8.57;;;4.20;;
15677;SDS011;7939;50.814;6.368;2024-03-25T06:14:17;6.70;;;4.28;;
15677;SDS011;7939;50.814;6.368;2024-03-25T06:16:43;5.22;;;4.25;;
15677;SDS011;7939;50.814;6.368;2024-03-25T06:19:09;7.20;;;4.68;;
15677;SDS011;7939;50.814;6.368;2024-03-25T06:21:34;10.73;;;4.68;;
15677;SDS011;7939;50.814;6.368;2024-03-25T06:24:00;7.13;;;4.93;;
15677;SDS011;7939;50.814;6.368;2024-03-25T06:26:27;7.72;;;5.68;;
15677;SDS011;7939;50.814;6.368;2024-03-25T06:28:53;10.68;;;5.50;;
15677;SDS011;7939;50.814;6.368;2024-03-25T06:31:19;9.30;;;6.07;;
15677;SDS011;7939;50.814;6.368;2024-03-25T06:34:03;10.52;;;6.30;;
15677;SDS011;7939;50.814;6.368;2024-03-25T06:36:40;8.80;;;6.32;;
15677;SDS011;7939;50.814;6.368;2024-03-25T06:39:06;11.93;;;6.50;;
15677;SDS011;7939;50.814;6.368;2024-03-25T06:41:33;11.25;;;5.82;;
15677;SDS011;7939;50.814;6.368;2024-03-25T06:43:59;10.48;;;6.63;;
15677;SDS011;7939;50.814;6.368;2024-03-25T06:46:25;14.15;;;7.20;;
15677;SDS011;7939;50.814;6.368;2024-03-25T06:48:51;9.50;;;6.10;;
15677;SDS011;7939;50.814;6.368;2024-03-25T06:51:16;15.50;;;6.30;;
15677;SDS011;7939;50.814;6.368;2024-03-25T06:53:42;12.30;;;6.88;;
15677;SDS011;7939;50.814;6.368;2024-03-25T06:56:08;11.77;;;5.90;;
15677;SDS011;7939;50.814;6.368;2024-03-25T06:58:35;8.90;;;5.70;;
15677;SDS011;7939;50.814;6.368;2024-03-25T07:01:04;12.07;;;6.07;;
15677;SDS011;7939;50.814;6.368;2024-03-25T07:03:31;11.52;;;6.65;;
15677;SDS011;7939;50.814;6.368;2024-03-25T07:05:57;8.18;;;5.80;;
15677;SDS011;7939;50.814;6.368;2024-03-25T07:08:23;9.32;;;5.55;;
15677;SDS011;7939;50.814;6.368;2024-03-25T07:10:48;10.40;;;5.85;;
15677;SDS011;7939;50.814;6.368;2024-03-25T07:13:14;8.13;;;5.20;;
15677;SDS011;7939;50.814;6.368;2024-03-25T07:15:42;8.93;;;6.00;;
15677;SDS011;7939;50.814;6.368;2024-03-25T07:18:08;11.57;;;5.60;;
15677;SDS011;7939;50.814;6.368;2024-03-25T07:20:35;8.18;;;5.35;;
15677;SDS011;7939;50.814;6.368;2024-03-25T07:23:00;7.05;;;4.82;;
15677;SDS011;7939;50.814;6.368;2024-03-25T07:25:26;8.93;;;5.60;;
15677;SDS011;7939;50.814;6.368;2024-03-25T07:27:52;8.23;;;5.53;;
15677;SDS011;7939;50.814;6.368;2024-03-25T07:30:18;9.82;;;6.03;;
15677;SDS011;7939;50.814;6.368;2024-03-25T07:32:45;12.05;;;5.00;;
15677;SDS011;7939;50.814;6.368;2024-03-25T07:35:11;8.38;;;4.75;;
15677;SDS011;7939;50.814;6.368;2024-03-25T07:37:37;10.75;;;5.65;;
15677;SDS011;7939;50.814;6.368;2024-03-25T07:40:03;9.35;;;5.60;;
15677;SDS011;7939;50.814;6.368;2024-03-25T07:42:29;9.40;;;5.22;;
15677;SDS011;7939;50.814;6.368;2024-03-25T07:44:55;7.72;;;5.15;;
15677;SDS011;7939;50.814;6.368;2024-03-25T07:47:21;11.27;;;5.93;;
15677;SDS011;7939;50.814;6.368;2024-03-25T07:49:48;9.32;;;4.90;;
15677;SDS011;7939;50.814;6.368;2024-03-25T07:52:13;11.90;;;6.22;;
15677;SDS011;7939;50.814;6.368;2024-03-25T07:54:39;6.93;;;4.80;;
15677;SDS011;7939;50.814;6.368;2024-03-25T07:57:05;8.43;;;4.90;;
15677;SDS011;7939;50.814;6.368;2024-03-25T07:59:31;7.70;;;4.93;;
15677;SDS011;7939;50.814;6.368;2024-03-25T08:01:56;9.40;;;4.60;;
15677;SDS011;7939;50.814;6.368;2024-03-25T08:04:22;7.85;;;4.90;;
15677;SDS011;7939;50.814;6.368;2024-03-25T08:06:49;8.02;;;4.68;;
15677;SDS011;7939;50.814;6.368;2024-03-25T08:09:15;9.13;;;4.20;;
15677;SDS011;7939;50.814;6.368;2024-03-25T08:11:41;4.75;;;3.58;;
15677;SDS011;7939;50.814;6.368;2024-03-25T08:14:06;10.38;;;4.60;;
15677;SDS011;7939;50.814;6.368;2024-03-25T08:16:32;7.70;;;4.03;;
15677;SDS011;7939;50.814;6.368;2024-03-25T08:18:58;5.68;;;3.65;;
15677;SDS011;7939;50.814;6.368;2024-03-25T08:21:24;8.73;;;4.35;;
15677;SDS011;7939;50.814;6.368;2024-03-25T08:23:51;8.45;;;3.67;;
15677;SDS011;7939;50.814;6.368;2024-03-25T08:26:17;8.60;;;4.22;;
15677;SDS011;7939;50.814;6.368;2024-03-25T08:28:42;5.47;;;3.90;;
15677;SDS011;7939;50.814;6.368;2024-03-25T08:31:08;6.30;;;4.15;;
15677;SDS011;7939;50.814;6.368;2024-03-25T08:33:34;7.70;;;4.07;;
15677;SDS011;7939;50.814;6.368;2024-03-25T08:36:00;5.53;;;3.28;;
15677;SDS011;7939;50.814;6.368;2024-03-25T08:38:26;7.40;;;4.40;;
15677;SDS011;7939;50.814;6.368;2024-03-25T08:40:53;7.20;;;4.38;;
15677;SDS011;7939;50.814;6.368;2024-03-25T08:43:19;8.63;;;4.72;;
15677;SDS011;7939;50.814;6.368;2024-03-25T08:45:45;6.95;;;4.40;;
15677;SDS011;7939;50.814;6.368;2024-03-25T08:48:10;6.93;;;4.25;;
15677;SDS011;7939;50.814;6.368;2024-03-25T08:50:36;9.27;;;4.25;;
15677;SDS011;7939;50.814;6.368;2024-03-25T08:53:02;6.55;;;3.70;;
15677;SDS011;7939;50.814;6.368;2024-03-25T08:55:28;7.00;;;4.45;;
15677;SDS011;7939;50.814;6.368;2024-03-25T08:57:55;5.20;;;3.70;;
15677;SDS011;7939;50.814;6.368;2024-03-25T09:00:21;6.53;;;4.15;;
15677;SDS011;7939;50.814;6.368;2024-03-25T09:02:47;4.53;;;3.40;;
15677;SDS011;7939;50.814;6.368;2024-03-25T09:05:13;7.10;;;3.88;;
15677;SDS011;7939;50.814;6.368;2024-03-25T09:07:39;6.78;;;4.15;;
15677;SDS011;7939;50.814;6.368;2024-03-25T09:10:05;5.13;;;3.58;;
15677;SDS011;7939;50.814;6.368;2024-03-25T09:12:49;5.45;;;3.70;;
15677;SDS011;7939;50.814;6.368;2024-03-25T09:15:17;5.70;;;3.30;;
15677;SDS011;7939;50.814;6.368;2024-03-25T09:17:42;6.53;;;3.63;;
15677;SDS011;7939;50.814;6.368;2024-03-25T09:20:08;7.45;;;3.25;;
15677;SDS011;7939;50.814;6.368;2024-03-25T09:22:35;7.45;;;3.50;;
15677;SDS011;7939;50.814;6.368;2024-03-25T09:25:01;5.28;;;3.10;;
15677;SDS011;7939;50.814;6.368;2024-03-25T09:27:26;6.20;;;3.22;;
15677;SDS011;7939;50.814;6.368;2024-03-25T09:29:52;8.30;;;3.25;;
15677;SDS011;7939;50.814;6.368;2024-03-25T09:32:19;3.97;;;3.15;;
15677;SDS011;7939;50.814;6.368;2024-03-25T09:34:45;5.75;;;2.95;;
15677;SDS011;7939;50.814;6.368;2024-03-25T09:37:11;4.28;;;2.80;;
15677;SDS011;7939;50.814;6.368;2024-03-25T09:39:37;3.70;;;2.80;;
15677;SDS011;7939;50.814;6.368;2024-03-25T09:42:03;3.13;;;2.58;;
15677;SDS011;7939;50.814;6.368;2024-03-25T09:44:33;3.83;;;2.80;;
15677;SDS011;7939;50.814;6.368;2024-03-25T09:47:00;4.10;;;2.20;;
15677;SDS011;7939;50.814;6.368;2024-03-25T09:49:28;5.70;;;2.63;;
15677;SDS011;7939;50.814;6.368;2024-03-25T09:51:54;2.80;;;2.17;;
15677;SDS011;7939;50.814;6.368;2024-03-25T09:54:20;6.32;;;2.80;;
15677;SDS011;7939;50.814;6.368;2024-03-25T09:56:45;2.58;;;2.35;;
15677;SDS011;7939;50.814;6.368;2024-03-25T09:59:13;6.15;;;2.30;;
15677;SDS011;7939;50.814;6.368;2024-03-25T10:01:39;5.03;;;2.60;;
15677;SDS011;7939;50.814;6.368;2024-03-25T10:04:05;2.47;;;2.08;;
15677;SDS011;7939;50.814;6.368;2024-03-25T10:06:32;2.50;;;2.20;;
15677;SDS011;7939;50.814;6.368;2024-03-25T10:08:58;5.18;;;2.30;;
15677;SDS011;7939;50.814;6.368;2024-03-25T10:11:24;2.30;;;1.90;;
15677;SDS011;7939;50.814;6.368;2024-03-25T10:13:50;5.50;;;2.40;;
15677;SDS011;7939;50.814;6.368;2024-03-25T10:16:16;4.80;;;2.65;;
15677;SDS011;7939;50.814;6.368;2024-03-25T10:18:42;3.00;;;2.40;;
15677;SDS011;7939;50.814;6.368;2024-03-25T10:21:09;2.83;;;2.33;;
15677;SDS011;7939;50.814;6.368;2024-03-25T10:23:39;5.75;;;2.75;;
15677;SDS011;7939;50.814;6.368;2024-03-25T10:26:05;5.47;;;2.63;;
15677;SDS011;7939;50.814;6.368;2024-03-25T10:28:31;4.70;;;2.65;;
15677;SDS011;7939;50.814;6.368;2024-03-25T10:31:02;4.15;;;3.15;;
15677;SDS011;7939;50.814;6.368;2024-03-25T10:33:28;5.38;;;2.90;;
15677;SDS011;7939;50.814;6.368;2024-03-25T10:35:54;5.63;;;2.05;;
15677;SDS011;7939;50.814;6.368;2024-03-25T10:38:23;3.17;;;2.58;;
15677;SDS011;7939;50.814;6.368;2024-03-25T10:40:51;5.93;;;2.58;;
15677;SDS011;7939;50.814;6.368;2024-03-25T10:43:20;4.70;;;2.55;;
15677;SDS011;7939;50.814;6.368;2024-03-25T10:45:47;4.47;;;2.38;;
15677;SDS011;7939;50.814;6.368;2024-03-25T10:48:15;5.88;;;2.70;;
15677;SDS011;7939;50.814;6.368;2024-03-25T10:50:45;4.93;;;2.30;;
15677;SDS011;7939;50.814;6.368;2024-03-25T10:53:12;3.60;;;2.28;;
15677;SDS011;7939;50.814;6.368;2024-03-25T10:55:41;6.38;;;2.25;;
15677;SDS011;7939;50.814;6.368;2024-03-25T11:00:43;5.75;;;2.55;;
15677;SDS011;7939;50.814;6.368;2024-03-25T11:03:10;4.28;;;2.80;;
15677;SDS011;7939;50.814;6.368;2024-03-25T11:05:36;4.57;;;2.97;;
15677;SDS011;7939;50.814;6.368;2024-03-25T11:08:09;4.85;;;2.67;;
15677;SDS011;7939;50.814;6.368;2024-03-25T11:10:39;3.33;;;2.38;;
15677;SDS011;7939;50.814;6.368;2024-03-25T11:13:09;6.50;;;3.05;;
15677;SDS011;7939;50.814;6.368;2024-03-25T11:15:36;5.82;;;2.60;;
15677;SDS011;7939;50.814;6.368;2024-03-25T11:18:04;3.63;;;3.33;;
15677;SDS011;7939;50.814;6.368;2024-03-25T11:20:35;3.55;;;2.60;;
15677;SDS011;7939;50.814;6.368;2024-03-25T11:23:07;3.85;;;2.90;;
15677;SDS011;7939;50.814;6.368;2024-03-25T11:25:34;6.30;;;2.80;;
15677;SDS011;7939;50.814;6.368;2024-03-25T11:27:59;4.82;;;3.55;;
15677;SDS011;7939;50.814;6.368;2024-03-25T11:30:25;5.93;;;3.00;;
15677;SDS011;7939;50.814;6.368;2024-03-25T11:32:52;4.13;;;3.22;;
15677;SDS011;7939;50.814;6.368;2024-03-25T11:35:20;5.65;;;2.95;;
15677;SDS011;7939;50.814;6.368;2024-03-25T11:37:46;3.13;;;2.42;;
15677;SDS011;7939;50.814;6.368;2024-03-25T11:40:13;4.80;;;3.00;;
15677;SDS011;7939;50.814;6.368;2024-03-25T11:42:39;4.20;;;2.53;;
15677;SDS011;7939;50.814;6.368;2024-03-25T11:45:05;7.47;;;3.25;;
15677;SDS011;7939;50.814;6.368;2024-03-25T11:47:32;6.53;;;3.10;;
15677;SDS011;7939;50.814;6.368;2024-03-25T11:49:58;5.57;;;2.65;;
15677;SDS011;7939;50.814;6.368;2024-03-25T11:52:29;6.18;;;3.10;;
15677;SDS011;7939;50.814;6.368;2024-03-25T11:54:55;4.28;;;2.95;;
15677;SDS011;7939;50.814;6.368;2024-03-25T11:57:21;5.30;;;2.80;;
15677;SDS011;7939;50.814;6.368;2024-03-25T11:59:47;4.05;;;2.50;;
15677;SDS011;7939;50.814;6.368;2024-03-25T12:02:14;4.07;;;2.75;;
15677;SDS011;7939;50.814;6.368;2024-03-25T12:04:42;5.22;;;2.80;;
15677;SDS011;7939;50.814;6.368;2024-03-25T12:07:10;7.45;;;3.75;;
15677;SDS011;7939;50.814;6.368;2024-03-25T12:09:38;3.85;;;2.30;;
15677;SDS011;7939;50.814;6.368;2024-03-25T12:12:22;5.07;;;2.63;;
15677;SDS011;7939;50.814;6.368;2024-03-25T12:14:48;4.38;;;3.08;;
15677;SDS011;7939;50.814;6.368;2024-03-25T12:17:14;3.50;;;3.03;;
15677;SDS011;7939;50.814;6.368;2024-03-25T12:19:40;4.45;;;2.80;;
15677;SDS011;7939;50.814;6.368;2024-03-25T12:22:06;4.10;;;2.78;;
15677;SDS011;7939;50.814;6.368;2024-03-25T12:24:32;2.50;;;2.30;;
15677;SDS011;7939;50.814;6.368;2024-03-25T12:26:59;7.90;;;2.75;;
15677;SDS011;7939;50.814;6.368;2024-03-25T12:29:25;3.70;;;2.70;;
15677;SDS011;7939;50.814;6.368;2024-03-25T12:31:54;3.50;;;2.58;;
15677;SDS011;7939;50.814;6.368;2024-03-25T12:34:21;7.15;;;3.03;;
15677;SDS011;7939;50.814;6.368;2024-03-25T12:36:47;4.88;;;2.45;;
15677;SDS011;7939;50.814;6.368;2024-03-25T12:39:16;4.97;;;2.70;;
15677;SDS011;7939;50.814;6.368;2024-03-25T12:41:43;2.72;;;2.17;;
15677;SDS011;7939;50.814;6.368;2024-03-25T12:44:11;4.65;;;2.75;;
15677;SDS011;7939;50.814;6.368;2024-03-25T12:46:38;6.00;;;3.03;;
15677;SDS011;7939;50.814;6.368;2024-03-25T12:49:04;4.47;;;2.85;;
15677;SDS011;7939;50.814;6.368;2024-03-25T12:51:30;5.07;;;2.80;;
15677;SDS011;7939;50.814;6.368;2024-03-25T12:53:55;6.68;;;2.72;;
15677;SDS011;7939;50.814;6.368;2024-03-25T12:56:21;4.30;;;2.65;;
15677;SDS011;7939;50.814;6.368;2024-03-25T12:58:47;2.95;;;2.58;;
15677;SDS011;7939;50.814;6.368;2024-03-25T13:01:14;6.45;;;3.47;;
15677;SDS011;7939;50.814;6.368;2024-03-25T13:03:40;4.45;;;2.70;;
15677;SDS011;7939;50.814;6.368;2024-03-25T13:06:06;4.95;;;2.65;;
15677;SDS011;7939;50.814;6.368;2024-03-25T13:08:32;5.80;;;2.50;;
15677;SDS011;7939;50.814;6.368;2024-03-25T13:10:58;6.07;;;3.30;;
15677;SDS011;7939;50.814;6.368;2024-03-25T13:13:23;4.87;;;3.10;;
15677;SDS011;7939;50.814;6.368;2024-03-25T13:15:49;5.32;;;3.00;;
15677;SDS011;7939;50.814;6.368;2024-03-25T13:18:16;4.60;;;3.22;;
15677;SDS011;7939;50.814;6.368;2024-03-25T13:20:43;6.10;;;2.70;;
15677;SDS011;7939;50.814;6.368;2024-03-25T13:23:09;6.47;;;3.20;;
15677;SDS011;7939;50.814;6.368;2024-03-25T13:25:35;6.90;;;2.88;;
15677;SDS011;7939;50.814;6.368;2024-03-25T13:28:00;5.80;;;2.75;;
15677;SDS011;7939;50.814;6.368;2024-03-25T13:30:26;3.28;;;2.00;;
15677;SDS011;7939;50.814;6.368;2024-03-25T13:32:52;4.75;;;2.42;;
15677;SDS011;7939;50.814;6.368;2024-03-25T13:35:19;4.72;;;2.60;;
15677;SDS011;7939;50.814;6.368;2024-03-25T13:37:45;5.40;;;2.78;;
15677;SDS011;7939;50.814;6.368;2024-03-25T13:40:11;2.63;;;2.00;;
15677;SDS011;7939;50.814;6.368;2024-03-25T13:42:37;3.33;;;2.00;;
15677;SDS011;7939;50.814;6.368;2024-03-25T13:45:03;5.03;;;2.20;;
15677;SDS011;7939;50.814;6.368;2024-03-25T13:47:29;3.92;;;2.05;;
15677;SDS011;7939;50.814;6.368;2024-03-25T13:50:01;4.95;;;2.42;;
15677;SDS011;7939;50.814;6.368;2024-03-25T13:52:29;2.78;;;2.20;;
15677;SDS011;7939;50.814;6.368;2024-03-25T13:54:55;3.05;;;2.33;;
15677;SDS011;7939;50.814;6.368;2024-03-25T13:57:21;4.57;;;2.30;;
15677;SDS011;7939;50.814;6.368;2024-03-25T13:59:47;3.65;;;2.65;;
15677;SDS011;7939;50.814;6.368;2024-03-25T14:02:12;5.03;;;2.72;;
15677;SDS011;7939;50.814;6.368;2024-03-25T14:04:38;3.92;;;2.30;;
15677;SDS011;7939;50.814;6.368;2024-03-25T14:07:04;4.20;;;2.45;;
15677;SDS011;7939;50.814;6.368;2024-03-25T14:09:31;3.28;;;2.00;;
15677;SDS011;7939;50.814;6.368;2024-03-25T14:11:57;3.47;;;2.00;;
15677;SDS011;7939;50.814;6.368;2024-03-25T14:14:23;4.85;;;2.42;;
15677;SDS011;7939;50.814;6.368;2024-03-25T14:16:49;4.47;;;2.13;;
15677;SDS011;7939;50.814;6.368;2024-03-25T14:19:14;3.20;;;2.28;;
15677;SDS011;7939;50.814;6.368;2024-03-25T14:21:40;4.93;;;2.88;;
15677;SDS011;7939;50.814;6.368;2024-03-25T14:24:06;2.33;;;1.95;;
15677;SDS011;7939;50.814;6.368;2024-03-25T14:26:34;2.63;;;1.95;;
15677;SDS011;7939;50.814;6.368;2024-03-25T14:29:00;4.43;;;2.40;;
15677;SDS011;7939;50.814;6.368;2024-03-25T14:31:26;5.07;;;2.70;;
15677;SDS011;7939;50.814;6.368;2024-03-25T14:33:51;2.80;;;2.10;;
15677;SDS011;7939;50.814;6.368;2024-03-25T14:36:17;2.63;;;2.30;;
15677;SDS011;7939;50.814;6.368;2024-03-25T14:38:43;6.43;;;2.70;;
15677;SDS011;7939;50.814;6.368;2024-03-25T14:41:10;6.00;;;2.55;;
15677;SDS011;7939;50.814;6.368;2024-03-25T14:43:39;3.97;;;2.22;;
15677;SDS011;7939;50.814;6.368;2024-03-25T14:46:05;5.93;;;2.15;;
15677;SDS011;7939;50.814;6.368;2024-03-25T14:48:31;3.28;;;2.20;;
15677;SDS011;7939;50.814;6.368;2024-03-25T14:50:56;4.25;;;2.22;;
15677;SDS011;7939;50.814;6.368;2024-03-25T14:53:22;5.20;;;2.55;;
15677;SDS011;7939;50.814;6.368;2024-03-25T14:55:48;3.63;;;2.70;;
15677;SDS011;7939;50.814;6.368;2024-03-25T14:58:14;3.22;;;2.17;;